Time;durP1;ratioP1;P1;durP2;ratioP2;P2;SDS_P1;SDS_P2;PMS_P1;PMS_P2;Temp;Humidity;BMP_temperature;BMP_pressure;BME280_temperature;BME280_humidity;BME280_pressure;Samples;Min_cycle;Max_cycle;Signal;HPM_P1;HPM_P2
2022/08/29 00:00:19;;;;;;;5.85;2.42;;;16.80;87.40;;;;;;5028652;28;20034;-80
2022/08/29 00:02:50;;;;;;;5.93;2.13;;;16.90;87.10;;;;;;5036839;28;20189;-80
2022/08/29 00:05:21;;;;;;;5.47;2.28;;;16.80;87.40;;;;;;5016052;28;20034;-80
2022/08/29 00:07:46;;;;;;;4.47;1.77;;;16.80;87.40;;;;;;5015607;28;20094;-79
2022/08/29 00:10:12;;;;;;;7.95;2.25;;;16.80;87.30;;;;;;5021745;28;20029;-80
2022/08/29 00:12:38;;;;;;;4.70;2.72;;;16.90;87.10;;;;;;5024705;28;20045;-79
2022/08/29 00:15:07;;;;;;;5.25;1.98;;;16.80;87.40;;;;;;5012699;28;20549;-80
2022/08/29 00:17:33;;;;;;;5.40;2.10;;;16.60;87.70;;;;;;5005027;28;20022;-80
2022/08/29 00:19:59;;;;;;;12.55;2.80;;;16.60;88.20;;;;;;5009132;28;20487;-80
2022/08/29 00:22:25;;;;;;;6.82;2.38;;;16.60;88.10;;;;;;5017076;28;20029;-80
2022/08/29 00:24:51;;;;;;;10.55;1.95;;;16.50;88.20;;;;;;5018496;28;20431;-81
2022/08/29 00:27:17;;;;;;;5.82;2.20;;;16.60;87.80;;;;;;5004691;28;20033;-80
2022/08/29 00:29:42;;;;;;;7.05;2.00;;;16.70;87.70;;;;;;5029844;28;20030;-80
2022/08/29 00:32:08;;;;;;;5.93;1.80;;;16.70;87.50;;;;;;5021053;28;20033;-80
2022/08/29 00:34:34;;;;;;;5.85;2.20;;;16.80;87.40;;;;;;5026999;28;20042;-79
2022/08/29 00:37:00;;;;;;;4.15;2.15;;;16.70;87.50;;;;;;5013519;28;20027;-79
2022/08/29 00:39:26;;;;;;;8.00;1.90;;;16.70;87.40;;;;;;5013240;28;20029;-80
2022/08/29 00:41:51;;;;;;;7.50;2.40;;;16.70;87.60;;;;;;5016992;28;20022;-80
2022/08/29 00:44:18;;;;;;;5.38;2.28;;;16.60;88.00;;;;;;5011870;28;20293;-80
2022/08/29 00:46:52;;;;;;;7.80;2.10;;;16.60;87.90;;;;;;5014157;28;20022;-80
2022/08/29 00:49:41;;;;;;;7.63;2.30;;;16.50;87.90;;;;;;5017424;28;20056;-80
2022/08/29 00:52:32;;;;;;;5.80;2.00;;;16.50;88.00;;;;;;5027958;28;20034;-80
2022/08/29 00:54:59;;;;;;;4.40;1.95;;;16.50;88.00;;;;;;5031482;28;20117;-79
2022/08/29 00:57:30;;;;;;;6.43;2.47;;;16.50;87.90;;;;;;5034173;28;20120;-79
2022/08/29 00:59:57;;;;;;;8.07;2.50;;;16.60;87.70;;;;;;5022401;28;20027;-80
2022/08/29 01:02:23;;;;;;;4.90;2.10;;;16.60;87.80;;;;;;5026829;28;20046;-80
2022/08/29 01:04:49;;;;;;;4.88;2.03;;;16.40;88.60;;;;;;5025214;28;20034;-80
2022/08/29 01:07:15;;;;;;;3.40;1.77;;;16.30;88.80;;;;;;5037701;28;20102;-79
2022/08/29 01:09:43;;;;;;;5.65;2.30;;;16.10;89.50;;;;;;5044423;28;20600;-80
2022/08/29 01:12:14;;;;;;;5.28;1.70;;;16.10;89.40;;;;;;5026015;28;20056;-80
2022/08/29 01:14:48;;;;;;;5.85;2.88;;;16.10;89.60;;;;;;5032761;28;20039;-80
2022/08/29 01:17:19;;;;;;;4.60;2.53;;;15.90;90.00;;;;;;5033822;28;20033;-80
2022/08/29 01:19:59;;;;;;;8.43;3.40;;;15.90;90.10;;;;;;5037641;28;20068;-80
2022/08/29 01:22:49;;;;;;;6.75;3.00;;;15.90;90.00;;;;;;5035821;28;20121;-80
2022/08/29 01:25:18;;;;;;;4.88;2.33;;;16.00;89.70;;;;;;5024898;28;20038;-80
2022/08/29 01:27:51;;;;;;;6.38;2.40;;;16.00;89.60;;;;;;5034138;28;20042;-79
2022/08/29 01:30:17;;;;;;;3.45;1.92;;;16.10;89.40;;;;;;5021548;28;20111;-80
2022/08/29 01:32:43;;;;;;;7.38;2.40;;;16.10;89.10;;;;;;5020557;28;20089;-80
2022/08/29 01:35:09;;;;;;;7.25;2.63;;;16.20;89.00;;;;;;5023811;28;20722;-79
2022/08/29 01:37:38;;;;;;;10.25;2.72;;;16.10;89.00;;;;;;5052337;28;20021;-80
2022/08/29 01:40:05;;;;;;;9.15;2.47;;;16.10;89.00;;;;;;5022548;28;20042;-79
2022/08/29 01:42:30;;;;;;;5.82;2.20;;;16.10;89.10;;;;;;5042325;28;20026;-79
2022/08/29 01:44:59;;;;;;;9.25;2.58;;;16.20;89.00;;;;;;5021192;28;20102;-79
2022/08/29 01:47:28;;;;;;;4.75;2.30;;;16.10;88.80;;;;;;5032582;28;20067;-80
2022/08/29 01:49:54;;;;;;;4.65;2.28;;;16.10;89.30;;;;;;5045876;28;20037;-79
2022/08/29 01:52:21;;;;;;;5.78;2.20;;;16.00;89.40;;;;;;5050990;28;20040;-79
2022/08/29 01:54:48;;;;;;;6.45;2.10;;;15.90;89.90;;;;;;5051392;28;20022;-79
2022/08/29 01:57:15;;;;;;;7.20;2.47;;;15.80;90.00;;;;;;5041205;28;20037;-80
2022/08/29 01:59:41;;;;;;;6.35;2.10;;;15.80;90.00;;;;;;5051117;28;20098;-79
2022/08/29 02:02:16;;;;;;;10.18;2.53;;;15.80;90.00;;;;;;5046581;28;20029;-79
2022/08/29 02:04:45;;;;;;;7.25;2.53;;;15.60;90.20;;;;;;5049826;28;20044;-80
2022/08/29 02:07:16;;;;;;;5.78;2.63;;;15.60;90.10;;;;;;5046307;28;20022;-79
2022/08/29 02:09:42;;;;;;;5.38;1.95;;;15.60;90.10;;;;;;5047272;28;20034;-79
2022/08/29 02:12:09;;;;;;;8.18;3.40;;;15.70;90.10;;;;;;5043699;28;20044;-80
2022/08/29 02:14:35;;;;;;;11.45;3.72;;;15.70;90.00;;;;;;5051410;28;20034;-79
2022/08/29 02:17:02;;;;;;;8.23;2.88;;;15.80;89.80;;;;;;5057980;28;20093;-78
2022/08/29 02:19:28;;;;;;;5.45;2.53;;;15.80;89.60;;;;;;5049447;28;20021;-79
2022/08/29 02:21:54;;;;;;;8.82;2.20;;;15.80;89.80;;;;;;5062883;28;20043;-80
2022/08/29 02:24:20;;;;;;;6.07;2.80;;;15.80;89.90;;;;;;5009179;28;1229294;-79
2022/08/29 02:26:46;;;;;;;6.95;2.92;;;15.80;89.80;;;;;;5030861;28;20030;-80
2022/08/29 02:29:12;;;;;;;6.82;2.70;;;15.80;89.80;;;;;;5038781;28;20061;-80
2022/08/29 02:31:39;;;;;;;8.68;2.67;;;15.70;90.00;;;;;;5038538;28;20740;-80
2022/08/29 02:34:09;;;;;;;6.97;2.38;;;15.70;90.00;;;;;;5033904;28;20517;-80
2022/08/29 02:36:36;;;;;;;5.50;2.20;;;15.70;90.00;;;;;;5035401;28;20033;-80
2022/08/29 02:39:02;;;;;;;5.88;2.30;;;15.70;90.20;;;;;;5029305;28;20033;-80
2022/08/29 02:41:28;;;;;;;6.57;2.33;;;15.60;90.40;;;;;;5030092;28;20032;-79
2022/08/29 02:43:55;;;;;;;5.18;2.17;;;15.30;90.60;;;;;;5041218;28;20025;-80
2022/08/29 02:46:21;;;;;;;5.53;2.15;;;15.40;90.70;;;;;;5036393;28;20398;-80
2022/08/29 02:48:49;;;;;;;6.70;2.03;;;15.50;90.50;;;;;;5048137;28;20068;-79
2022/08/29 02:51:24;;;;;;;10.73;2.30;;;15.30;90.80;;;;;;5040916;28;20026;-80
2022/08/29 02:53:50;;;;;;;5.68;2.30;;;14.90;91.60;;;;;;5036285;28;20121;-81
2022/08/29 02:56:17;;;;;;;5.45;2.22;;;15.10;91.10;;;;;;5036262;28;20061;-80
2022/08/29 02:58:42;;;;;;;6.20;2.05;;;15.20;91.00;;;;;;5034118;28;20033;-80
2022/08/29 03:01:09;;;;;;;5.40;2.10;;;15.20;90.90;;;;;;5022724;28;20072;-80
2022/08/29 03:03:35;;;;;;;5.03;2.38;;;15.30;90.80;;;;;;5044551;28;20057;-80
2022/08/29 03:06:01;;;;;;;7.00;2.30;;;15.30;90.80;;;;;;5028649;28;20036;-80
2022/08/29 03:08:27;;;;;;;6.40;2.15;;;15.30;90.80;;;;;;5032707;28;20121;-80
2022/08/29 03:10:52;;;;;;;5.55;2.42;;;15.30;90.80;;;;;;5035774;28;20089;-80
2022/08/29 03:13:19;;;;;;;6.40;2.33;;;15.30;90.80;;;;;;5031691;28;20083;-80
2022/08/29 03:15:45;;;;;;;4.25;2.33;;;15.20;90.90;;;;;;5031706;28;20453;-79
2022/08/29 03:18:11;;;;;;;6.50;2.63;;;15.20;90.90;;;;;;5036159;28;20082;-79
2022/08/29 03:20:37;;;;;;;7.88;2.58;;;15.10;91.00;;;;;;5023289;28;20109;-80
2022/08/29 03:23:04;;;;;;;5.32;2.78;;;15.10;91.00;;;;;;5034864;28;20039;-79
2022/08/29 03:25:31;;;;;;;5.45;2.22;;;15.00;91.00;;;;;;5027749;28;20030;-80
2022/08/29 03:27:58;;;;;;;4.70;2.20;;;14.90;91.10;;;;;;5034381;28;20033;-81
2022/08/29 03:30:25;;;;;;;4.55;2.35;;;14.90;91.30;;;;;;5024300;28;20036;-80
2022/08/29 03:32:51;;;;;;;5.75;2.40;;;14.80;91.50;;;;;;5030967;28;20029;-80
2022/08/29 03:35:18;;;;;;;7.43;2.63;;;14.80;91.50;;;;;;5032147;28;20033;-80
2022/08/29 03:37:44;;;;;;;5.97;2.67;;;14.80;91.60;;;;;;5036580;28;20089;-80
2022/08/29 03:40:12;;;;;;;8.30;2.30;;;14.90;91.30;;;;;;5034662;28;20032;-80
2022/08/29 03:42:38;;;;;;;4.50;2.10;;;14.80;91.50;;;;;;5031223;28;20074;-80
2022/08/29 03:45:07;;;;;;;5.35;2.90;;;14.70;91.50;;;;;;5034440;28;20025;-80
2022/08/29 03:47:33;;;;;;;6.35;2.47;;;14.60;91.90;;;;;;5028848;28;20494;-80
2022/08/29 03:49:59;;;;;;;6.55;2.97;;;14.30;92.30;;;;;;5049876;28;20041;-80
2022/08/29 03:52:25;;;;;;;5.35;2.13;;;14.20;92.30;;;;;;5049394;28;20028;-80
2022/08/29 03:54:52;;;;;;;6.65;2.45;;;14.40;92.20;;;;;;5031505;28;20022;-80
2022/08/29 03:57:17;;;;;;;7.05;2.30;;;14.40;92.10;;;;;;5026484;28;20036;-80
2022/08/29 03:59:43;;;;;;;7.38;2.33;;;14.40;92.20;;;;;;5034390;28;20017;-80
2022/08/29 04:02:09;;;;;;;6.80;2.53;;;14.50;91.90;;;;;;5030279;28;20021;-80
2022/08/29 04:07:19;;;;;;;5.22;2.10;;;14.60;91.70;;;;;;5036643;28;20032;-80
2022/08/29 04:09:45;;;;;;;8.57;2.47;;;14.50;91.80;;;;;;5023241;28;20038;-80
2022/08/29 04:12:12;;;;;;;8.13;2.63;;;14.30;92.40;;;;;;5039691;28;20505;-78
2022/08/29 04:14:39;;;;;;;5.47;2.53;;;14.20;92.70;;;;;;5037049;28;20034;-79
2022/08/29 04:17:06;;;;;;;7.80;3.25;;;14.20;92.50;;;;;;5037131;28;20021;-80
2022/08/29 04:19:34;;;;;;;9.95;2.65;;;14.30;92.40;;;;;;5023897;28;20474;-80
2022/08/29 04:22:00;;;;;;;5.40;2.33;;;14.20;92.70;;;;;;5026312;28;20112;-80
2022/08/29 04:24:26;;;;;;;5.32;1.95;;;14.00;93.20;;;;;;5044611;28;20068;-80
2022/08/29 04:26:52;;;;;;;7.47;2.60;;;14.10;92.70;;;;;;5044681;28;20030;-80
2022/08/29 04:29:17;;;;;;;6.80;2.28;;;14.20;92.50;;;;;;5028424;28;20049;-80
2022/08/29 04:31:43;;;;;;;7.32;2.22;;;14.00;92.70;;;;;;5025527;28;20033;-80
2022/08/29 04:34:11;;;;;;;6.95;2.05;;;14.10;92.60;;;;;;5025233;28;20033;-80
2022/08/29 04:36:40;;;;;;;4.30;2.13;;;14.00;92.90;;;;;;5038080;28;20053;-79
2022/08/29 04:39:07;;;;;;;5.85;2.35;;;13.80;93.10;;;;;;5037659;28;20029;-81
2022/08/29 04:41:34;;;;;;;5.78;2.45;;;13.80;93.30;;;;;;5032417;28;20533;-79
2022/08/29 04:44:00;;;;;;;6.93;2.72;;;13.90;93.00;;;;;;5030772;28;20030;-79
2022/08/29 04:46:26;;;;;;;4.78;2.08;;;14.00;92.70;;;;;;5028884;28;20037;-80
2022/08/29 04:48:52;;;;;;;5.13;2.40;;;14.10;92.70;;;;;;5040893;28;20041;-80
2022/08/29 04:51:19;;;;;;;5.13;2.00;;;14.10;92.70;;;;;;5027691;28;20022;-80
2022/08/29 04:53:45;;;;;;;4.38;1.85;;;14.10;92.60;;;;;;5046623;28;20021;-80
2022/08/29 04:56:12;;;;;;;6.43;2.65;;;14.20;92.40;;;;;;5038732;28;20028;-79
2022/08/29 04:58:40;;;;;;;6.38;2.67;;;14.20;92.40;;;;;;5031373;28;20021;-79
2022/08/29 05:01:06;;;;;;;6.20;2.28;;;14.20;92.20;;;;;;5026877;28;20029;-80
2022/08/29 05:03:33;;;;;;;7.78;2.40;;;14.20;92.40;;;;;;5029946;28;20093;-80
2022/08/29 05:06:05;;;;;;;8.50;2.92;;;14.00;92.80;;;;;;5033758;28;20038;-80
2022/08/29 05:08:32;;;;;;;6.40;2.33;;;14.00;92.70;;;;;;5034379;28;20473;-80
2022/08/29 05:10:58;;;;;;;4.57;2.00;;;14.10;92.60;;;;;;5022571;28;20042;-80
2022/08/29 05:13:24;;;;;;;5.50;3.10;;;14.20;92.40;;;;;;5031096;28;20398;-79
2022/08/29 05:15:50;;;;;;;6.90;2.15;;;14.30;92.30;;;;;;5027834;28;20467;-80
2022/08/29 05:18:17;;;;;;;5.10;2.35;;;14.00;93.10;;;;;;5032032;28;20037;-80
2022/08/29 05:20:45;;;;;;;7.38;2.50;;;14.10;92.80;;;;;;5037216;28;20024;-79
2022/08/29 05:23:12;;;;;;;5.15;1.95;;;14.10;92.90;;;;;;5029391;28;20034;-79
2022/08/29 05:25:38;;;;;;;7.35;2.45;;;14.30;92.50;;;;;;5039278;28;20032;-79
2022/08/29 05:28:04;;;;;;;4.38;2.40;;;14.40;92.10;;;;;;5031179;28;20033;-80
2022/08/29 05:30:31;;;;;;;6.43;2.70;;;14.50;92.00;;;;;;5032083;28;20107;-80
2022/08/29 05:32:57;;;;;;;6.78;3.75;;;14.60;92.00;;;;;;5036048;28;20034;-79
2022/08/29 05:35:23;;;;;;;12.23;2.35;;;14.40;92.60;;;;;;5035501;28;20025;-79
2022/08/29 05:37:49;;;;;;;7.47;2.20;;;14.50;92.50;;;;;;5024559;28;20029;-79
2022/08/29 05:40:15;;;;;;;10.52;2.92;;;14.50;92.20;;;;;;5040084;28;20025;-80
2022/08/29 05:42:41;;;;;;;8.65;3.38;;;14.40;92.80;;;;;;5035785;28;20036;-79
2022/08/29 05:45:08;;;;;;;7.13;2.97;;;14.50;92.40;;;;;;5032553;28;20037;-79
2022/08/29 05:47:34;;;;;;;7.13;2.50;;;14.40;92.90;;;;;;5037612;28;20029;-79
2022/08/29 05:50:00;;;;;;;6.97;2.53;;;14.60;92.30;;;;;;5041194;28;20030;-80
2022/08/29 05:52:27;;;;;;;12.15;3.85;;;14.70;92.20;;;;;;5024826;28;20036;-79
2022/08/29 05:54:53;;;;;;;9.05;2.70;;;14.80;92.20;;;;;;5035227;28;20028;-79
2022/08/29 05:57:21;;;;;;;9.43;2.63;;;14.80;92.40;;;;;;5040939;28;20025;-79
2022/08/29 05:59:52;;;;;;;4.85;2.80;;;14.80;92.20;;;;;;5035951;28;20132;-79
2022/08/29 06:02:19;;;;;;;12.18;2.40;;;14.80;92.80;;;;;;5022964;28;20631;-79
2022/08/29 06:04:45;;;;;;;12.18;3.67;;;14.70;92.90;;;;;;5033012;28;20112;-79
2022/08/29 06:07:12;;;;;;;9.32;2.60;;;14.90;92.20;;;;;;5026186;28;20057;-79
2022/08/29 06:09:39;;;;;;;7.85;2.70;;;15.00;92.00;;;;;;5024873;28;20037;-79
2022/08/29 06:12:07;;;;;;;5.68;1.90;;;15.00;92.10;;;;;;5043974;28;20068;-79
2022/08/29 06:14:33;;;;;;;5.55;2.33;;;14.90;92.30;;;;;;5032070;28;20075;-79
2022/08/29 06:16:59;;;;;;;4.57;2.53;;;15.00;92.00;;;;;;5032017;28;20029;-79
2022/08/29 06:19:25;;;;;;;6.80;2.70;;;14.80;92.90;;;;;;5033936;28;20064;-79
2022/08/29 06:21:54;;;;;;;6.13;2.40;;;14.60;93.50;;;;;;5036756;28;20029;-80
2022/08/29 06:24:20;;;;;;;6.97;2.72;;;14.70;93.40;;;;;;5048487;28;20489;-80
2022/08/29 06:26:46;;;;;;;7.68;2.30;;;14.70;93.20;;;;;;5028829;28;20029;-80
2022/08/29 06:29:13;;;;;;;6.70;3.10;;;14.70;93.50;;;;;;5047270;28;20041;-79
2022/08/29 06:31:39;;;;;;;8.52;2.70;;;14.70;93.60;;;;;;5025904;28;20049;-80
2022/08/29 06:34:06;;;;;;;5.90;2.20;;;14.70;93.50;;;;;;5027787;28;20092;-80
2022/08/29 06:36:32;;;;;;;6.97;2.45;;;14.90;93.40;;;;;;5036843;28;20030;-80
2022/08/29 06:39:00;;;;;;;7.50;2.38;;;15.10;92.80;;;;;;5031974;28;20501;-80
2022/08/29 06:41:27;;;;;;;8.68;2.70;;;15.30;92.60;;;;;;5038168;28;20093;-80
2022/08/29 06:43:56;;;;;;;8.75;2.67;;;15.30;93.00;;;;;;5040218;28;20025;-80
2022/08/29 06:46:22;;;;;;;5.90;2.25;;;15.40;93.10;;;;;;5042494;28;20059;-80
2022/08/29 06:48:51;;;;;;;6.00;2.70;;;15.30;92.80;;;;;;5029476;28;20579;-80
2022/08/29 06:51:17;;;;;;;5.60;2.30;;;15.20;93.10;;;;;;5031950;28;20041;-78
2022/08/29 06:53:44;;;;;;;4.93;2.28;;;15.40;92.90;;;;;;5025476;28;20513;-80
2022/08/29 06:56:09;;;;;;;10.60;3.33;;;15.50;92.70;;;;;;5035095;28;20117;-80
2022/08/29 06:58:35;;;;;;;7.65;2.70;;;15.60;92.80;;;;;;5028874;28;20053;-80
2022/08/29 07:01:10;;;;;;;6.60;2.75;;;15.70;92.40;;;;;;5046180;28;20093;-79
2022/08/29 07:03:35;;;;;;;8.30;3.10;;;15.80;92.50;;;;;;5054061;28;20025;-80
2022/08/29 07:06:02;;;;;;;7.22;3.20;;;15.90;92.40;;;;;;5040532;28;20120;-79
2022/08/29 07:08:27;;;;;;;6.47;2.78;;;16.00;91.90;;;;;;5027695;28;20025;-80
2022/08/29 07:10:53;;;;;;;10.30;2.90;;;16.10;92.00;;;;;;5034026;28;20025;-79
2022/08/29 07:13:19;;;;;;;8.43;2.95;;;16.20;92.10;;;;;;5028761;28;20128;-80
2022/08/29 07:15:45;;;;;;;8.20;3.08;;;16.20;91.70;;;;;;5023678;28;20033;-80
2022/08/29 07:18:11;;;;;;;11.07;2.78;;;16.20;91.50;;;;;;5044082;28;20410;-78
2022/08/29 07:20:40;;;;;;;7.15;2.53;;;16.30;91.60;;;;;;5033418;28;20026;-79
2022/08/29 07:23:07;;;;;;;8.35;3.20;;;16.20;91.80;;;;;;5044632;28;20014;-79
2022/08/29 07:25:33;;;;;;;10.50;2.90;;;16.30;91.80;;;;;;5036893;28;20437;-80
2022/08/29 07:27:59;;;;;;;8.15;2.85;;;16.40;91.30;;;;;;5034019;28;20453;-79
2022/08/29 07:30:25;;;;;;;4.57;2.85;;;16.40;91.50;;;;;;5044520;28;20485;-80
2022/08/29 07:32:51;;;;;;;6.88;2.58;;;16.50;91.40;;;;;;5023059;28;20042;-78
2022/08/29 07:35:18;;;;;;;6.28;2.55;;;16.60;91.10;;;;;;5027127;28;20026;-77
2022/08/29 07:37:44;;;;;;;9.85;2.72;;;16.60;91.20;;;;;;5029968;28;20025;-79
2022/08/29 07:40:16;;;;;;;4.45;2.83;;;16.60;91.30;;;;;;5036136;28;20030;-79
2022/08/29 07:42:43;;;;;;;10.57;2.90;;;16.70;90.60;;;;;;5026066;28;20018;-79
2022/08/29 07:45:28;;;;;;;8.20;2.70;;;16.70;91.30;;;;;;5045469;28;20100;-79
2022/08/29 07:47:54;;;;;;;10.10;2.55;;;16.80;90.90;;;;;;5032459;28;20025;-79
2022/08/29 07:50:20;;;;;;;5.63;2.50;;;16.90;90.80;;;;;;5034703;28;20089;-79
2022/08/29 07:52:47;;;;;;;9.90;2.65;;;16.90;90.80;;;;;;5038038;28;20030;-79
2022/08/29 07:55:13;;;;;;;5.25;2.65;;;16.90;90.70;;;;;;5033436;28;20033;-79
2022/08/29 07:57:39;;;;;;;10.65;3.38;;;17.00;91.00;;;;;;5036557;28;20464;-79
2022/08/29 08:00:08;;;;;;;10.32;2.80;;;17.00;90.70;;;;;;5040902;28;20061;-79
2022/08/29 08:02:34;;;;;;;11.38;3.00;;;16.90;90.60;;;;;;5042979;28;20116;-79
2022/08/29 08:05:00;;;;;;;8.75;3.00;;;17.00;90.70;;;;;;5053492;28;20033;-79
2022/08/29 08:07:26;;;;;;;5.45;2.40;;;17.10;90.40;;;;;;5048341;28;20195;-79
2022/08/29 08:09:52;;;;;;;9.75;3.42;;;17.10;90.50;;;;;;5035414;28;20036;-80
2022/08/29 08:12:18;;;;;;;10.15;2.90;;;17.20;90.40;;;;;;5043335;28;20093;-79
2022/08/29 08:14:47;;;;;;;10.93;3.25;;;17.20;90.20;;;;;;5027758;28;20037;-80
2022/08/29 08:17:14;;;;;;;8.77;2.53;;;17.20;90.00;;;;;;5028352;28;20022;-80
2022/08/29 08:19:40;;;;;;;7.28;2.65;;;17.30;89.80;;;;;;5037619;28;20028;-79
2022/08/29 08:22:06;;;;;;;11.30;2.80;;;17.20;89.40;;;;;;5035770;28;20029;-79
2022/08/29 08:24:31;;;;;;;11.50;3.60;;;17.30;89.40;;;;;;5044637;28;20034;-79
2022/08/29 08:26:57;;;;;;;8.70;2.70;;;17.40;89.50;;;;;;5038213;28;20030;-79
2022/08/29 08:29:23;;;;;;;8.77;2.70;;;17.50;89.20;;;;;;5034710;28;20022;-79
2022/08/29 08:31:49;;;;;;;5.95;2.63;;;17.60;88.80;;;;;;5031481;28;20052;-80
2022/08/29 08:34:19;;;;;;;7.95;2.47;;;17.60;88.40;;;;;;5044694;28;20056;-80
2022/08/29 08:36:45;;;;;;;10.93;2.97;;;17.70;88.10;;;;;;5056341;28;20041;-79
2022/08/29 08:39:12;;;;;;;8.90;2.55;;;17.80;87.70;;;;;;5043449;28;20029;-79
2022/08/29 08:42:04;;;;;;;7.63;2.42;;;17.80;87.70;;;;;;5039189;28;20029;-79
2022/08/29 08:45:02;;;;;;;6.85;2.60;;;17.90;86.70;;;;;;5051156;28;20457;-79
2022/08/29 08:47:38;;;;;;;5.40;2.28;;;18.00;86.40;;;;;;5037680;28;20036;-80
2022/08/29 08:50:12;;;;;;;6.55;2.22;;;18.00;86.50;;;;;;5033759;28;20045;-79
2022/08/29 08:52:44;;;;;;;4.82;2.30;;;18.00;86.60;;;;;;5035829;28;20072;-79
2022/08/29 08:55:13;;;;;;;6.10;2.40;;;18.10;85.50;;;;;;5042590;28;20033;-79
2022/08/29 08:57:48;;;;;;;4.25;2.28;;;18.20;86.00;;;;;;5039945;28;20484;-80
2022/08/29 09:00:14;;;;;;;6.28;2.20;;;18.30;85.90;;;;;;5030423;28;20024;-79
2022/08/29 09:03:23;;;;;;;6.45;2.65;;;18.30;83.50;;;;;;5029211;28;20486;-80
2022/08/29 09:06:11;;;;;;;3.35;1.88;;;18.40;83.80;;;;;;5022275;28;20029;-79
2022/08/29 09:08:50;;;;;;;4.70;1.88;;;18.50;84.10;;;;;;5020506;28;20034;-79
2022/08/29 09:11:34;;;;;;;7.68;2.50;;;18.50;83.20;;;;;;5022517;28;20037;-80
2022/08/29 09:14:11;;;;;;;;;;;18.60;83.90;;;;;;5032068;28;20034;-80
2022/08/29 09:16:45;;;;;;;9.25;2.38;;;18.60;83.50;;;;;;5045512;28;19924;-80
2022/08/29 09:19:15;;;;;;;3.92;2.25;;;18.60;82.40;;;;;;5033920;28;20025;-80
2022/08/29 09:21:52;;;;;;;6.45;2.15;;;18.70;83.80;;;;;;5031531;28;20026;-79
2022/08/29 09:24:45;;;;;;;3.60;2.28;;;18.70;83.50;;;;;;5034904;28;20029;-79
2022/08/29 09:27:27;;;;;;;4.43;1.88;;;18.70;83.20;;;;;;5050221;28;20606;-80
2022/08/29 09:30:01;;;;;;;3.95;1.92;;;18.70;82.10;;;;;;5028855;28;20039;-80
2022/08/29 09:32:27;;;;;;;5.78;2.35;;;18.70;82.60;;;;;;5043795;28;20095;-79
2022/08/29 09:34:53;;;;;;;6.10;2.78;;;18.70;81.80;;;;;;5028844;28;20037;-80
2022/08/29 09:37:33;;;;;;;5.80;1.98;;;18.80;81.60;;;;;;5032202;28;20113;-79
2022/08/29 09:40:02;;;;;;;5.28;2.05;;;18.80;81.40;;;;;;5031987;28;20525;-79
2022/08/29 09:42:32;;;;;;;8.05;1.90;;;18.80;81.20;;;;;;5033144;28;20037;-80
2022/08/29 09:45:23;;;;;;;4.07;1.88;;;18.80;81.50;;;;;;5034752;28;20532;-80
2022/08/29 09:48:06;;;;;;;5.10;1.80;;;18.80;81.10;;;;;;5032762;28;20071;-80
2022/08/29 09:50:32;;;;;;;4.68;2.47;;;18.90;81.50;;;;;;5031490;28;20033;-79
2022/08/29 09:53:00;;;;;;;3.08;1.75;;;18.90;81.20;;;;;;5052419;28;20040;-80
2022/08/29 09:55:31;;;;;;;5.07;1.80;;;18.90;80.40;;;;;;5029874;28;20072;-80
2022/08/29 09:58:09;;;;;;;9.15;2.17;;;19.00;80.80;;;;;;5035637;28;20049;-79
2022/08/29 10:00:42;;;;;;;5.65;2.28;;;19.00;81.00;;;;;;5031256;28;20021;-79
2022/08/29 10:03:18;;;;;;;;;;;19.00;80.70;;;;;;5034591;28;20038;-79
2022/08/29 10:05:45;;;;;;;5.35;2.20;;;19.10;80.70;;;;;;5034777;28;20262;-80
2022/08/29 10:08:41;;;;;;;5.20;2.47;;;19.00;79.80;;;;;;5026732;28;20486;-80
2022/08/29 10:11:16;;;;;;;7.22;2.63;;;19.10;80.10;;;;;;5017880;28;20639;-80
2022/08/29 10:13:50;;;;;;;4.60;1.95;;;19.20;79.80;;;;;;5030529;28;20030;-79
2022/08/29 10:16:25;;;;;;;4.55;2.08;;;19.30;78.30;;;;;;5045068;28;20031;-79
2022/08/29 10:19:14;;;;;;;5.00;2.15;;;19.30;79.50;;;;;;5041515;28;20068;-80
2022/08/29 10:22:07;;;;;;;4.97;2.33;;;19.40;78.10;;;;;;5036807;28;20355;-80
2022/08/29 10:24:44;;;;;;;2.72;1.88;;;19.40;78.90;;;;;;5028496;28;20095;-80
2022/08/29 10:27:34;;;;;;;4.00;2.10;;;19.60;78.60;;;;;;5038187;28;20035;-79
2022/08/29 10:30:22;;;;;;;10.68;2.35;;;19.70;78.70;;;;;;5045454;28;20076;-80
2022/08/29 10:33:11;;;;;;;6.70;2.35;;;19.70;78.80;;;;;;5031311;28;20025;-79
2022/08/29 10:36:15;;;;;;;7.03;2.25;;;19.70;77.90;;;;;;5026495;28;20033;-79
2022/08/29 10:38:57;;;;;;;5.03;2.10;;;19.70;78.20;;;;;;5026258;28;20053;-79
2022/08/29 10:42:12;;;;;;;2.80;1.75;;;19.70;78.60;;;;;;5025537;28;20070;-79
2022/08/29 10:44:48;;;;;;;;;;;19.70;78.20;;;;;;4991078;28;20053;-81
2022/08/29 10:47:35;;;;;;;5.57;2.15;;;19.80;78.20;;;;;;5024220;28;19917;-80
2022/08/29 10:50:26;;;;;;;4.43;1.75;;;19.90;78.60;;;;;;5028543;28;20033;-79
2022/08/29 10:52:57;;;;;;;3.78;2.05;;;20.00;78.80;;;;;;5039269;28;20030;-81
2022/08/29 10:55:55;;;;;;;5.03;1.92;;;20.20;78.20;;;;;;5024201;28;20391;-81
2022/08/29 10:58:59;;;;;;;2.20;1.70;;;20.30;78.00;;;;;;5044128;28;20030;-81
2022/08/29 11:01:30;;;;;;;6.97;2.60;;;20.30;77.30;;;;;;5027817;28;20030;-80
2022/08/29 11:04:01;;;;;;;4.25;2.15;;;20.30;77.20;;;;;;5028182;28;20037;-80
2022/08/29 11:06:42;;;;;;;6.38;2.03;;;20.50;77.50;;;;;;5046107;28;20037;-80
2022/08/29 11:09:17;;;;;;;3.45;1.85;;;20.50;76.90;;;;;;5036363;28;20140;-79
2022/08/29 11:12:14;;;;;;;2.90;2.03;;;20.60;77.10;;;;;;5034623;28;20032;-80
2022/08/29 11:14:46;;;;;;;2.97;1.88;;;20.60;76.20;;;;;;5036422;28;20044;-81
2022/08/29 11:17:15;;;;;;;4.75;1.70;;;20.70;76.50;;;;;;5033000;28;20508;-79
2022/08/29 11:20:10;;;;;;;4.00;1.60;;;20.70;76.50;;;;;;5031026;28;20025;-80
2022/08/29 11:23:00;;;;;;;4.60;2.58;;;20.80;76.90;;;;;;5047993;28;20044;-81
2022/08/29 11:25:28;;;;;;;6.05;2.25;;;20.80;76.50;;;;;;5026479;28;20029;-81
2022/08/29 11:28:02;;;;;;;4.97;2.30;;;20.70;76.20;;;;;;5031584;28;20030;-81
2022/08/29 11:31:10;;;;;;;2.40;1.70;;;20.70;76.80;;;;;;5053895;28;20029;-81
2022/08/29 11:34:02;;;;;;;4.47;2.15;;;20.60;76.90;;;;;;5041144;28;20064;-80
2022/08/29 11:36:45;;;;;;;4.20;1.85;;;20.60;76.60;;;;;;5041271;28;20133;-81
2022/08/29 11:39:17;;;;;;;6.10;2.03;;;20.60;77.60;;;;;;5030590;28;20054;-81
2022/08/29 11:41:49;;;;;;;3.63;2.25;;;20.60;76.70;;;;;;5042895;28;20393;-81
2022/08/29 11:44:29;;;;;;;2.63;1.95;;;20.70;76.70;;;;;;5031953;28;20527;-81
2022/08/29 11:46:56;;;;;;;2.70;1.85;;;20.70;75.90;;;;;;5029370;28;20030;-81
2022/08/29 11:49:42;;;;;;;5.90;2.47;;;20.70;76.10;;;;;;5038073;28;20029;-80
2022/08/29 11:52:09;;;;;;;4.45;1.77;;;20.80;76.90;;;;;;5028917;28;20506;-80
2022/08/29 11:54:35;;;;;;;4.43;2.00;;;20.90;75.30;;;;;;5031966;28;20025;-81
2022/08/29 11:57:02;;;;;;;5.07;2.20;;;21.00;76.10;;;;;;5022827;28;20033;-82
2022/08/29 11:59:49;;;;;;;3.72;1.60;;;21.00;75.90;;;;;;5025694;28;20037;-81
2022/08/29 12:02:28;;;;;;;4.35;2.45;;;21.00;74.60;;;;;;5043352;28;20498;-80
2022/08/29 12:04:55;;;;;;;4.45;2.40;;;21.10;75.80;;;;;;5025382;28;20316;-80
2022/08/29 12:07:41;;;;;;;5.10;1.90;;;21.00;75.60;;;;;;5029871;28;20030;-79
2022/08/29 12:10:23;;;;;;;2.53;1.90;;;21.10;76.10;;;;;;5029431;28;20513;-81
2022/08/29 12:12:59;;;;;;;3.00;1.80;;;21.10;75.40;;;;;;5028166;28;20063;-81
2022/08/29 12:15:31;;;;;;;3.42;2.10;;;21.20;75.40;;;;;;5039961;28;20394;-80
2022/08/29 12:18:01;;;;;;;3.40;1.83;;;21.20;75.00;;;;;;5033065;28;20032;-81
2022/08/29 12:20:35;;;;;;;3.13;1.90;;;21.20;75.00;;;;;;5033841;28;20440;-81
2022/08/29 12:23:09;;;;;;;;;;;21.30;75.40;;;;;;5043737;28;20025;-81
2022/08/29 12:25:47;;;;;;;3.08;1.90;;;21.30;74.50;;;;;;5048645;28;20401;-81
2022/08/29 12:28:29;;;;;;;4.82;2.10;;;21.40;73.10;;;;;;5038551;28;20140;-80
2022/08/29 12:30:58;;;;;;;5.10;2.25;;;21.40;72.80;;;;;;5027497;28;20026;-80
2022/08/29 12:33:35;;;;;;;4.25;2.25;;;21.40;73.40;;;;;;5031745;28;20033;-80
2022/08/29 12:36:25;;;;;;;4.43;2.50;;;21.40;73.90;;;;;;5040391;28;20032;-80
2022/08/29 12:39:22;;;;;;;4.05;2.30;;;21.50;71.90;;;;;;5040038;28;20033;-80
2022/08/29 12:42:26;;;;;;;10.80;1.92;;;21.50;73.30;;;;;;5046316;28;20097;-81
2022/08/29 12:45:09;;;;;;;2.88;2.15;;;21.50;72.60;;;;;;5050294;28;20022;-80
2022/08/29 12:47:51;;;;;;;5.13;1.95;;;21.50;73.00;;;;;;5039399;28;20417;-81
2022/08/29 12:50:23;;;;;;;3.28;1.73;;;21.60;72.40;;;;;;5040566;28;20295;-80
2022/08/29 12:53:02;;;;;;;3.95;2.28;;;21.70;72.60;;;;;;5034673;28;20029;-80
2022/08/29 12:55:38;;;;;;;6.20;2.17;;;21.80;71.90;;;;;;5030204;28;20033;-79
2022/08/29 12:58:05;;;;;;;6.38;1.75;;;21.70;70.70;;;;;;5033680;28;20367;-81
2022/08/29 13:00:33;;;;;;;7.20;2.45;;;21.80;71.70;;;;;;5031279;28;20022;-81
2022/08/29 13:03:08;;;;;;;3.63;1.85;;;21.80;70.80;;;;;;5036924;28;20029;-81
2022/08/29 13:05:37;;;;;;;5.35;2.88;;;21.80;70.80;;;;;;5034362;28;20034;-80
2022/08/29 13:08:10;;;;;;;4.20;2.60;;;21.80;71.50;;;;;;5039942;28;20025;-81
2022/08/29 13:10:53;;;;;;;4.22;1.70;;;21.80;71.20;;;;;;5032910;28;20464;-80